createdAt,value
2018-12-16T00:00:02.604Z,1015.78
2018-12-16T00:01:02.594Z,1015.84
2018-12-16T00:02:02.598Z,1015.87
2018-12-16T00:03:02.571Z,1015.87
2018-12-16T00:04:02.549Z,1015.76
2018-12-16T00:05:02.542Z,1015.78
2018-12-16T00:06:02.749Z,1015.73
2018-12-16T00:07:02.531Z,1015.69
2018-12-16T00:08:02.512Z,1015.71
2018-12-16T00:09:02.501Z,1015.61
2018-12-16T00:10:02.485Z,1015.59
2018-12-16T00:11:02.478Z,1015.64
2018-12-16T00:12:02.501Z,1015.59
2018-12-16T00:13:02.474Z,1015.61
2018-12-16T00:14:02.458Z,1015.74
2018-12-16T00:15:02.444Z,1015.60
2018-12-16T00:16:02.411Z,1015.63
2018-12-16T00:17:02.406Z,1015.63
2018-12-16T00:18:02.433Z,1015.66
2018-12-16T00:19:02.393Z,1015.63
2018-12-16T00:20:02.384Z,1015.60
2018-12-16T00:21:02.355Z,1015.62
2018-12-16T00:22:02.368Z,1015.62
2018-12-16T00:23:02.369Z,1015.59
2018-12-16T00:24:02.352Z,1015.62
2018-12-16T00:25:02.342Z,1015.59
2018-12-16T00:26:02.303Z,1015.64
2018-12-16T00:27:02.294Z,1015.61
2018-12-16T00:28:02.324Z,1015.61
2018-12-16T00:29:02.278Z,1015.58
2018-12-16T00:30:02.274Z,1015.53
2018-12-16T00:31:02.259Z,1015.53
2018-12-16T00:32:02.262Z,1015.57
2018-12-16T00:33:02.233Z,1015.57
2018-12-16T00:34:02.273Z,1015.44
2018-12-16T00:35:02.210Z,1015.51
2018-12-16T00:36:02.217Z,1015.48
2018-12-16T00:37:02.192Z,1015.51
2018-12-16T00:38:02.209Z,1015.41
2018-12-16T00:39:02.200Z,1015.41
2018-12-16T00:40:02.263Z,1015.38
2018-12-16T00:41:02.147Z,1015.40
2018-12-16T00:42:02.163Z,1015.38
2018-12-16T00:43:02.150Z,1015.32
2018-12-16T00:44:02.128Z,1015.33
2018-12-16T00:45:02.253Z,1015.29
2018-12-16T00:46:02.095Z,1015.31
2018-12-16T00:47:02.103Z,1015.31
2018-12-16T00:48:02.089Z,1015.32
2018-12-16T00:49:02.083Z,1015.25
2018-12-16T00:50:02.074Z,1015.38
2018-12-16T00:51:02.043Z,1015.19
2018-12-16T00:52:02.030Z,1015.32
2018-12-16T00:53:02.015Z,1015.27
2018-12-16T00:54:02.023Z,1015.19
2018-12-16T00:55:02.028Z,1015.23
2018-12-16T00:56:02.015Z,1015.18
2018-12-16T00:57:01.974Z,1015.24
2018-12-16T00:58:01.978Z,1015.20
2018-12-16T00:59:01.954Z,1015.19
2018-12-16T01:00:01.968Z,1015.21
2018-12-16T01:01:01.937Z,1015.20
2018-12-16T01:02:01.914Z,1015.19
2018-12-16T01:03:01.906Z,1015.14
2018-12-16T01:04:01.896Z,1015.17
2018-12-16T01:05:01.926Z,1015.14
2018-12-16T01:06:01.931Z,1015.11
2018-12-16T01:07:01.881Z,1015.11
2018-12-16T01:08:01.852Z,1015.05
2018-12-16T01:09:01.848Z,1015.07
2018-12-16T01:10:01.843Z,1015.05
2018-12-16T01:11:01.852Z,1015.02
2018-12-16T01:12:01.817Z,1014.99
2018-12-16T01:13:01.813Z,1015.03
2018-12-16T01:14:01.784Z,1015.00
2018-12-16T01:15:01.772Z,1015.01
2018-12-16T01:16:01.796Z,1014.97
2018-12-16T01:17:01.765Z,1014.97
2018-12-16T01:18:01.751Z,1014.97
2018-12-16T01:19:01.748Z,1014.94
2018-12-16T01:20:01.735Z,1014.93
2018-12-16T01:21:01.777Z,1014.92
2018-12-16T01:22:01.714Z,1014.97
2018-12-16T01:23:01.702Z,1014.94
2018-12-16T01:24:01.694Z,1014.97
2018-12-16T01:25:01.679Z,1014.86
2018-12-16T01:26:01.662Z,1014.87
2018-12-16T01:27:01.663Z,1014.86
2018-12-16T01:28:01.638Z,1014.87
2018-12-16T01:29:01.645Z,1014.84
2018-12-16T01:30:01.645Z,1014.83
2018-12-16T01:31:01.621Z,1014.84
2018-12-16T01:32:01.639Z,1014.85
2018-12-16T01:33:01.590Z,1014.82
2018-12-16T01:34:01.578Z,1014.77
2018-12-16T01:35:01.587Z,1014.78
2018-12-16T01:36:01.562Z,1014.76
2018-12-16T01:37:01.565Z,1014.71
2018-12-16T01:38:01.578Z,1014.71
2018-12-16T01:39:02.230Z,1014.75
2018-12-16T01:40:01.509Z,1014.74
2018-12-16T01:41:01.491Z,1014.79
2018-12-16T01:42:01.570Z,1014.71
2018-12-16T01:43:01.478Z,1014.60
2018-12-16T01:44:01.475Z,1014.63
2018-12-16T01:45:01.473Z,1014.64
2018-12-16T01:46:01.461Z,1014.56
2018-12-16T01:47:01.465Z,1014.57
2018-12-16T01:48:01.438Z,1014.55
2018-12-16T01:49:01.408Z,1014.48
2018-12-16T01:50:01.412Z,1014.52
2018-12-16T01:51:01.389Z,1014.51
2018-12-16T01:52:01.427Z,1014.50
2018-12-16T01:53:01.412Z,1014.50
2018-12-16T01:54:01.367Z,1014.52
2018-12-16T01:55:01.342Z,1014.47
2018-12-16T01:56:01.341Z,1014.52
2018-12-16T01:57:01.348Z,1014.41
2018-12-16T01:58:01.331Z,1014.40
2018-12-16T01:59:01.308Z,1014.42
2018-12-16T02:00:01.302Z,1014.38
2018-12-16T02:01:01.288Z,1014.33
2018-12-16T02:02:01.287Z,1014.32
2018-12-16T02:03:01.305Z,1014.30
2018-12-16T02:04:01.279Z,1014.27
2018-12-16T02:05:01.247Z,1014.26
2018-12-16T02:06:01.233Z,1014.21
2018-12-16T02:07:01.225Z,1014.24
2018-12-16T02:08:01.234Z,1014.20
2018-12-16T02:09:01.193Z,1014.22
2018-12-16T02:10:01.207Z,1014.20
2018-12-16T02:11:01.188Z,1014.25
2018-12-16T02:12:01.170Z,1014.18
2018-12-16T02:13:01.152Z,1014.16
2018-12-16T02:14:01.173Z,1014.11
2018-12-16T02:15:01.135Z,1014.13
2018-12-16T02:16:01.140Z,1014.12
2018-12-16T02:17:01.128Z,1014.11
2018-12-16T02:18:01.093Z,1014.11
2018-12-16T02:19:01.090Z,1014.06
2018-12-16T02:20:01.099Z,1014.12
2018-12-16T02:21:01.070Z,1014.10
2018-12-16T02:22:01.085Z,1014.03
2018-12-16T02:23:01.059Z,1014.08
2018-12-16T02:24:01.040Z,1014.06
2018-12-16T02:25:01.065Z,1014.07
2018-12-16T02:26:01.033Z,1014.03
2018-12-16T02:27:01.013Z,1014.02
2018-12-16T02:28:01.029Z,1014.07
2018-12-16T02:29:00.996Z,1014.04
2018-12-16T02:30:00.998Z,1013.95
2018-12-16T02:31:00.959Z,1013.98
2018-12-16T02:32:01.016Z,1013.94
2018-12-16T02:33:00.954Z,1013.96
2018-12-16T02:34:00.953Z,1014.00
2018-12-16T02:35:00.977Z,1013.90
2018-12-16T02:36:00.926Z,1014.05
2018-12-16T02:37:00.922Z,1014.04
2018-12-16T02:38:00.883Z,1013.99
2018-12-16T02:39:00.946Z,1014.01
2018-12-16T02:40:00.866Z,1013.94
2018-12-16T02:41:00.881Z,1014.02
2018-12-16T02:42:00.852Z,1013.95
2018-12-16T02:43:00.851Z,1014.08
2018-12-16T02:44:00.817Z,1013.99
2018-12-16T02:45:00.824Z,1013.96
2018-12-16T02:46:00.841Z,1013.96
2018-12-16T02:47:00.812Z,1013.95
2018-12-16T02:48:00.784Z,1013.98
2018-12-16T02:49:00.793Z,1013.97
2018-12-16T02:50:00.764Z,1013.95
2018-12-16T02:51:00.769Z,1013.97
2018-12-16T02:52:00.765Z,1013.99
2018-12-16T02:53:04.586Z,1014.00
2018-12-16T02:54:00.724Z,1013.96
2018-12-16T02:55:00.716Z,1013.93
2018-12-16T02:56:00.705Z,1013.94
2018-12-16T02:57:00.739Z,1013.98
2018-12-16T02:58:00.669Z,1013.93
2018-12-16T02:59:00.652Z,1013.88
2018-12-16T03:00:00.684Z,1013.82
2018-12-16T03:01:00.671Z,1013.74
2018-12-16T03:02:00.629Z,1013.82
2018-12-16T03:03:00.646Z,1013.75
2018-12-16T03:04:00.622Z,1013.69
2018-12-16T03:05:00.601Z,1013.77
2018-12-16T03:06:00.600Z,1013.75
2018-12-16T03:07:00.598Z,1013.77
2018-12-16T03:08:00.578Z,1013.68
2018-12-16T03:09:00.585Z,1013.69
2018-12-16T03:10:00.548Z,1013.69
2018-12-16T03:11:00.529Z,1013.66
2018-12-16T03:12:00.520Z,1013.65
2018-12-16T03:13:00.508Z,1013.73
2018-12-16T03:14:00.523Z,1013.63
2018-12-16T03:15:00.543Z,1013.67
2018-12-16T03:16:00.486Z,1013.64
2018-12-16T03:17:00.473Z,1013.61
2018-12-16T03:18:00.462Z,1013.56
2018-12-16T03:19:00.494Z,1013.56
2018-12-16T03:20:00.456Z,1013.47
2018-12-16T03:21:00.460Z,1013.49
2018-12-16T03:22:00.433Z,1013.51
2018-12-16T03:23:00.412Z,1013.50
2018-12-16T03:24:00.411Z,1013.54
2018-12-16T03:25:00.427Z,1013.56
2018-12-16T03:26:00.410Z,1013.51
2018-12-16T03:27:00.368Z,1013.50
2018-12-16T03:28:00.370Z,1013.44
2018-12-16T03:29:00.356Z,1013.46
2018-12-16T03:30:00.321Z,1013.46
2018-12-16T03:31:00.336Z,1013.41
2018-12-16T03:32:00.340Z,1013.43
2018-12-16T03:33:00.307Z,1013.37
2018-12-16T03:34:00.300Z,1013.40
2018-12-16T03:35:00.304Z,1013.39
2018-12-16T03:36:00.293Z,1013.36
2018-12-16T03:37:00.257Z,1013.30
2018-12-16T03:38:00.266Z,1013.35
2018-12-16T03:39:00.239Z,1013.36
2018-12-16T03:40:00.238Z,1013.39
2018-12-16T03:41:00.218Z,1013.30
2018-12-16T03:42:00.224Z,1013.32
2018-12-16T03:43:00.183Z,1013.26
2018-12-16T03:44:00.212Z,1013.28
2018-12-16T03:45:00.187Z,1013.27
2018-12-16T03:46:00.177Z,1013.30
2018-12-16T03:47:00.165Z,1013.30
2018-12-16T03:48:00.155Z,1013.34
2018-12-16T03:49:00.122Z,1013.30
2018-12-16T03:50:00.142Z,1013.30
2018-12-16T03:51:00.118Z,1013.26
2018-12-16T03:52:00.100Z,1013.30
2018-12-16T03:53:00.127Z,1013.30
2018-12-16T03:54:00.069Z,1013.30
2018-12-16T03:55:00.078Z,1013.30
2018-12-16T03:56:00.043Z,1013.31
2018-12-16T03:57:00.051Z,1013.26
2018-12-16T03:58:00.031Z,1013.23
2018-12-16T03:59:00.059Z,1013.24
2018-12-16T04:00:00.010Z,1013.26
2018-12-16T04:01:00.001Z,1013.25
2018-12-16T04:01:59.984Z,1013.24
2018-12-16T04:02:59.988Z,1013.25
2018-12-16T04:03:59.994Z,1013.23
2018-12-16T04:04:59.961Z,1013.21
2018-12-16T04:05:59.969Z,1013.17
2018-12-16T04:06:59.952Z,1013.21
2018-12-16T04:07:59.931Z,1013.16
2018-12-16T04:08:59.929Z,1013.17
2018-12-16T04:09:59.906Z,1013.11
2018-12-16T04:10:59.894Z,1013.06
2018-12-16T04:11:59.882Z,1013.06
2018-12-16T04:12:59.916Z,1013.11
2018-12-16T04:13:59.858Z,1013.07
2018-12-16T04:14:59.860Z,1013.08
2018-12-16T04:15:59.835Z,1013.06
2018-12-16T04:16:59.818Z,1013.02
2018-12-16T04:17:59.822Z,1012.96
2018-12-16T04:18:59.833Z,1012.91
2018-12-16T04:19:59.789Z,1012.89
2018-12-16T04:20:59.777Z,1012.86
2018-12-16T04:21:59.780Z,1012.91
2018-12-16T04:22:59.777Z,1012.94
2018-12-16T04:23:59.752Z,1012.88
2018-12-16T04:24:59.768Z,1012.86
2018-12-16T04:25:59.730Z,1012.81
2018-12-16T04:26:59.713Z,1012.80
2018-12-16T04:27:59.713Z,1012.75
2018-12-16T04:28:59.705Z,1012.78
2018-12-16T04:29:59.717Z,1012.73
2018-12-16T04:30:59.689Z,1012.69
2018-12-16T04:31:59.675Z,1012.64
2018-12-16T04:32:59.656Z,1012.65
2018-12-16T04:33:59.642Z,1012.71
2018-12-16T04:34:59.630Z,1012.66
2018-12-16T04:35:59.663Z,1012.64
2018-12-16T04:36:59.633Z,1012.65
2018-12-16T04:37:59.606Z,1012.61
2018-12-16T04:38:59.788Z,1012.56
2018-12-16T04:39:59.572Z,1012.55
2018-12-16T04:40:59.567Z,1012.58
2018-12-16T04:41:59.564Z,1012.56
2018-12-16T04:42:59.550Z,1012.59
2018-12-16T04:43:59.989Z,1012.54
2018-12-16T04:44:59.536Z,1012.54
2018-12-16T04:45:59.923Z,1012.54
2018-12-16T04:46:59.505Z,1012.55
2018-12-16T04:47:59.499Z,1012.60
2018-12-16T04:48:59.485Z,1012.52
2018-12-16T04:49:59.484Z,1012.55
2018-12-16T04:50:59.494Z,1012.50
2018-12-16T04:51:59.447Z,1012.49
2018-12-16T04:52:59.440Z,1012.54
2018-12-16T04:53:59.456Z,1012.51
2018-12-16T04:54:59.428Z,1012.50
2018-12-16T04:55:59.416Z,1012.51
2018-12-16T04:56:59.428Z,1012.51
2018-12-16T04:57:59.384Z,1012.50
2018-12-16T04:58:59.401Z,1012.52
2018-12-16T04:59:59.368Z,1012.45
2018-12-16T05:00:59.358Z,1012.43
2018-12-16T05:01:59.361Z,1012.41
2018-12-16T05:02:59.335Z,1012.42
2018-12-16T05:03:59.323Z,1012.42
2018-12-16T05:04:59.342Z,1012.41
2018-12-16T05:05:59.306Z,1012.45
2018-12-16T05:06:59.287Z,1012.45
2018-12-16T05:07:59.297Z,1012.39
2018-12-16T05:08:59.292Z,1012.38
2018-12-16T05:09:59.273Z,1012.34
2018-12-16T05:10:59.238Z,1012.31
2018-12-16T05:11:59.233Z,1012.33
2018-12-16T05:12:59.226Z,1012.28
2018-12-16T05:13:59.227Z,1012.24
2018-12-16T05:14:59.243Z,1012.18
2018-12-16T05:15:59.200Z,1012.19
2018-12-16T05:16:59.189Z,1012.13
2018-12-16T05:17:59.165Z,1012.15
2018-12-16T05:18:59.201Z,1012.11
2018-12-16T05:19:59.172Z,1012.04
2018-12-16T05:20:59.141Z,1012.02
2018-12-16T05:21:59.143Z,1012.01
2018-12-16T05:22:59.129Z,1011.96
2018-12-16T05:23:59.101Z,1011.92
2018-12-16T05:24:59.102Z,1011.95
2018-12-16T05:25:59.114Z,1011.95
2018-12-16T05:26:59.078Z,1011.93
2018-12-16T05:27:59.084Z,1011.98
2018-12-16T05:28:59.065Z,1011.96
2018-12-16T05:29:59.049Z,1011.91
2018-12-16T05:30:59.038Z,1011.91
2018-12-16T05:31:59.034Z,1011.89
2018-12-16T05:32:59.000Z,1011.86
2018-12-16T05:33:59.012Z,1011.87
2018-12-16T05:34:59.003Z,1011.82
2018-12-16T05:35:58.983Z,1011.86
2018-12-16T05:36:58.991Z,1011.78
2018-12-16T05:37:58.949Z,1011.77
2018-12-16T05:38:58.959Z,1011.75
2018-12-16T05:39:58.938Z,1011.76
2018-12-16T05:40:58.949Z,1011.77
2018-12-16T05:41:58.910Z,1011.69
2018-12-16T05:42:58.915Z,1011.67
2018-12-16T05:43:58.916Z,1011.73
2018-12-16T05:44:58.884Z,1011.67
2018-12-16T05:45:58.874Z,1011.76
2018-12-16T05:46:58.868Z,1011.71
2018-12-16T05:47:58.852Z,1011.74
2018-12-16T05:48:58.866Z,1011.65
2018-12-16T05:49:58.830Z,1011.66
2018-12-16T05:50:58.816Z,1011.67
2018-12-16T05:51:58.829Z,1011.64
2018-12-16T05:52:58.804Z,1011.67
2018-12-16T05:53:58.797Z,1011.68
2018-12-16T05:54:58.782Z,1011.67
2018-12-16T05:55:58.768Z,1011.66
2018-12-16T05:56:58.746Z,1011.67
2018-12-16T05:57:58.773Z,1011.68
2018-12-16T05:58:58.745Z,1011.68
2018-12-16T05:59:58.729Z,1011.58
2018-12-16T06:00:58.725Z,1011.71
2018-12-16T06:01:58.691Z,1011.79
2018-12-16T06:02:58.696Z,1011.54
2018-12-16T06:03:58.702Z,1011.54
2018-12-16T06:04:58.663Z,1011.64
2018-12-16T06:05:58.664Z,1011.65
2018-12-16T06:06:58.659Z,1011.57
2018-12-16T06:07:58.640Z,1011.58
2018-12-16T06:08:58.650Z,1011.52
2018-12-16T06:09:58.610Z,1011.55
2018-12-16T06:10:58.606Z,1011.56
2018-12-16T06:11:58.603Z,1011.49
2018-12-16T06:12:58.587Z,1011.48
2018-12-16T06:13:58.593Z,1011.42
2018-12-16T06:14:58.556Z,1011.46
2018-12-16T06:15:58.568Z,1011.46
2018-12-16T06:16:58.536Z,1011.42
2018-12-16T06:17:58.542Z,1011.36
2018-12-16T06:18:58.542Z,1011.42
2018-12-16T06:19:58.511Z,1011.38
2018-12-16T06:20:58.568Z,1011.29
2018-12-16T06:21:58.482Z,1011.31
2018-12-16T06:22:58.470Z,1011.36
2018-12-16T06:23:58.489Z,1011.32
2018-12-16T06:24:58.457Z,1011.46
2018-12-16T06:25:58.454Z,1011.26
2018-12-16T06:26:58.455Z,1011.33
2018-12-16T06:27:58.423Z,1011.34
2018-12-16T06:28:58.408Z,1011.36
2018-12-16T06:29:58.416Z,1011.35
2018-12-16T06:30:58.423Z,1011.31
2018-12-16T06:31:58.387Z,1011.33
2018-12-16T06:32:58.374Z,1011.39
2018-12-16T06:33:58.368Z,1011.32
2018-12-16T06:34:58.349Z,1011.28
2018-12-16T06:35:58.406Z,1011.37
2018-12-16T06:36:58.320Z,1011.35
2018-12-16T06:37:58.321Z,1011.30
2018-12-16T06:38:58.313Z,1011.30
2018-12-16T06:39:58.310Z,1011.29
2018-12-16T06:40:58.287Z,1011.27
2018-12-16T06:41:58.292Z,1011.24
2018-12-16T06:42:58.250Z,1011.20
2018-12-16T06:43:58.259Z,1011.22
2018-12-16T06:44:58.243Z,1011.14
2018-12-16T06:45:58.219Z,1011.15
2018-12-16T06:46:58.246Z,1011.07
2018-12-16T06:47:58.203Z,1011.01
2018-12-16T06:48:58.201Z,1011.13
2018-12-16T06:49:58.799Z,1010.97
2018-12-16T06:50:58.174Z,1010.98
2018-12-16T06:51:58.191Z,1010.98
2018-12-16T06:52:58.163Z,1010.86
2018-12-16T06:54:02.406Z,1011.00
2018-12-16T06:54:58.127Z,1010.92
2018-12-16T06:55:58.120Z,1010.79
2018-12-16T06:56:58.130Z,1010.91
2018-12-16T06:57:58.213Z,1010.84
2018-12-16T06:58:58.102Z,1010.88
2018-12-16T06:59:58.079Z,1010.81
2018-12-16T07:00:58.060Z,1010.75
2018-12-16T07:01:58.084Z,1010.70
2018-12-16T07:02:58.093Z,1010.85
2018-12-16T07:03:58.042Z,1010.80
2018-12-16T07:04:58.039Z,1010.88
2018-12-16T07:05:58.005Z,1010.78
2018-12-16T07:06:58.001Z,1010.88
2018-12-16T07:07:57.988Z,1010.95
2018-12-16T07:08:57.994Z,1010.85
2018-12-16T07:09:57.975Z,1010.91
2018-12-16T07:10:57.973Z,1010.96
2018-12-16T07:11:57.982Z,1011.05
2018-12-16T07:12:57.953Z,1011.00
2018-12-16T07:13:57.957Z,1011.09
2018-12-16T07:14:57.917Z,1011.06
2018-12-16T07:15:57.923Z,1011.11
2018-12-16T07:16:57.916Z,1011.19
2018-12-16T07:17:57.913Z,1011.24
2018-12-16T07:18:57.891Z,1011.21
2018-12-16T07:19:57.880Z,1011.23
2018-12-16T07:20:57.877Z,1011.24
2018-12-16T07:21:57.848Z,1011.25
2018-12-16T07:22:57.873Z,1011.24
2018-12-16T07:23:57.827Z,1011.16
2018-12-16T07:24:57.856Z,1011.19
2018-12-16T07:25:57.807Z,1011.15
2018-12-16T07:26:57.780Z,1011.15
2018-12-16T07:27:57.781Z,1011.15
2018-12-16T07:28:57.784Z,1011.18
2018-12-16T07:29:57.758Z,1011.22
2018-12-16T07:30:57.839Z,1011.15
2018-12-16T07:31:57.732Z,1011.18
2018-12-16T07:32:57.740Z,1011.30
2018-12-16T07:33:57.728Z,1011.19
2018-12-16T07:34:57.719Z,1011.24
2018-12-16T07:35:57.716Z,1011.15
2018-12-16T07:36:57.713Z,1011.21
2018-12-16T07:37:57.703Z,1011.17
2018-12-16T07:38:57.657Z,1011.15
2018-12-16T07:39:57.661Z,1011.13
2018-12-16T07:40:57.633Z,1011.17
2018-12-16T07:41:57.699Z,1011.21
2018-12-16T07:42:57.636Z,1011.21
2018-12-16T07:43:57.619Z,1011.09
2018-12-16T07:44:57.616Z,1011.16
2018-12-16T07:45:57.590Z,1011.04
2018-12-16T07:46:57.611Z,1011.15
2018-12-16T07:47:57.576Z,1011.19
2018-12-16T07:48:57.568Z,1011.16
2018-12-16T07:49:57.541Z,1011.10
2018-12-16T07:50:57.534Z,1011.16
2018-12-16T07:51:57.540Z,1011.17
2018-12-16T07:52:57.540Z,1011.18
2018-12-16T07:53:57.497Z,1011.22
2018-12-16T07:54:57.509Z,1011.15
2018-12-16T07:55:57.538Z,1011.04
2018-12-16T07:56:57.476Z,1011.02
2018-12-16T07:57:57.474Z,1010.95
2018-12-16T07:58:57.443Z,1010.91
2018-12-16T07:59:57.449Z,1011.00
2018-12-16T08:00:57.425Z,1010.98
2018-12-16T08:01:57.425Z,1010.95
2018-12-16T08:02:57.478Z,1010.87
2018-12-16T08:03:57.399Z,1010.98
2018-12-16T08:04:57.396Z,1010.91
2018-12-16T08:05:57.380Z,1010.89
2018-12-16T08:06:57.369Z,1010.89
2018-12-16T08:07:57.448Z,1010.90
2018-12-16T08:08:57.376Z,1010.91
2018-12-16T08:09:57.348Z,1010.81
2018-12-16T08:10:57.322Z,1010.89
2018-12-16T08:11:57.321Z,1010.94
2018-12-16T08:12:57.289Z,1010.82
2018-12-16T08:13:57.309Z,1010.90
2018-12-16T08:14:57.280Z,1010.82
2018-12-16T08:15:57.286Z,1010.87
2018-12-16T08:16:57.262Z,1010.85
2018-12-16T08:17:57.266Z,1010.75
2018-12-16T08:18:57.252Z,1010.87
2018-12-16T08:19:57.266Z,1010.78
2018-12-16T08:20:57.215Z,1010.81
2018-12-16T08:21:57.196Z,1010.79
2018-12-16T08:22:57.191Z,1010.78
2018-12-16T08:23:57.177Z,1010.77
2018-12-16T08:24:57.169Z,1010.72
2018-12-16T08:25:57.179Z,1010.83
2018-12-16T08:26:57.157Z,1010.80
2018-12-16T08:27:57.135Z,1010.72
2018-12-16T08:28:57.144Z,1010.73
2018-12-16T08:29:57.113Z,1010.76
2018-12-16T08:30:57.117Z,1010.80
2018-12-16T08:31:57.128Z,1010.74
2018-12-16T08:32:57.083Z,1010.93
2018-12-16T08:33:57.075Z,1010.83
2018-12-16T08:34:57.079Z,1010.75
2018-12-16T08:35:57.050Z,1010.87
2018-12-16T08:36:57.086Z,1010.81
2018-12-16T08:37:57.032Z,1010.80
2018-12-16T08:38:57.032Z,1010.86
2018-12-16T08:39:57.031Z,1010.80
2018-12-16T08:40:57.003Z,1010.87
2018-12-16T08:41:57.006Z,1010.84
2018-12-16T08:42:57.008Z,1010.78
2018-12-16T08:43:56.962Z,1010.83
2018-12-16T08:44:56.969Z,1010.86
2018-12-16T08:45:57.034Z,1010.82
2018-12-16T08:46:57.020Z,1010.90
2018-12-16T08:47:56.938Z,1010.88
2018-12-16T08:48:56.949Z,1010.92
2018-12-16T08:49:56.903Z,1010.85
2018-12-16T08:50:56.891Z,1010.85
2018-12-16T08:51:56.880Z,1010.81
2018-12-16T08:52:56.888Z,1010.88
2018-12-16T08:53:56.870Z,1010.87
2018-12-16T08:54:56.847Z,1010.82
2018-12-16T08:55:57.935Z,1010.86
2018-12-16T08:56:56.822Z,1010.83
2018-12-16T08:57:56.821Z,1010.84
2018-12-16T08:58:56.866Z,1010.82
2018-12-16T08:59:56.809Z,1010.80
2018-12-16T09:00:56.786Z,1010.85
2018-12-16T09:01:56.776Z,1010.77
2018-12-16T09:02:56.781Z,1010.80
2018-12-16T09:03:56.758Z,1010.84
2018-12-16T09:04:56.767Z,1010.79
2018-12-16T09:05:56.731Z,1010.76
2018-12-16T09:06:56.735Z,1010.76
2018-12-16T09:07:56.719Z,1010.75
2018-12-16T09:08:56.698Z,1010.75
2018-12-16T09:09:56.697Z,1010.77
2018-12-16T09:10:56.713Z,1010.69
2018-12-16T09:11:56.674Z,1010.63
2018-12-16T09:12:56.664Z,1010.68
2018-12-16T09:13:56.650Z,1010.58
2018-12-16T09:14:56.636Z,1010.66
2018-12-16T09:15:56.644Z,1010.61
2018-12-16T09:16:56.701Z,1010.53
2018-12-16T09:17:56.609Z,1010.53
2018-12-16T09:18:56.604Z,1010.57
2018-12-16T09:19:56.599Z,1010.49
2018-12-16T09:20:56.571Z,1010.51
2018-12-16T09:21:56.569Z,1010.57
2018-12-16T09:22:56.567Z,1010.46
2018-12-16T09:23:56.546Z,1010.42
2018-12-16T09:24:56.547Z,1010.45
2018-12-16T09:25:56.512Z,1010.42
2018-12-16T09:26:56.500Z,1010.40
2018-12-16T09:27:56.530Z,1010.51
2018-12-16T09:28:56.498Z,1010.47
2018-12-16T09:29:56.494Z,1010.43
2018-12-16T09:30:58.163Z,1010.39
2018-12-16T09:31:56.471Z,1010.48
2018-12-16T09:32:56.451Z,1010.39
2018-12-16T09:33:56.450Z,1010.38
2018-12-16T09:34:56.412Z,1010.38
2018-12-16T09:35:56.411Z,1010.39
2018-12-16T09:36:56.396Z,1010.32
2018-12-16T09:37:56.402Z,1010.37
2018-12-16T09:38:56.415Z,1010.39
2018-12-16T09:39:56.378Z,1010.29
2018-12-16T09:40:56.350Z,1010.23
2018-12-16T09:41:56.376Z,1010.23
2018-12-16T09:42:56.356Z,1010.32
2018-12-16T09:43:56.335Z,1010.27
2018-12-16T09:44:56.323Z,1010.16
2018-12-16T09:45:56.322Z,1010.20
2018-12-16T09:46:56.285Z,1010.14
2018-12-16T09:47:56.293Z,1010.13
2018-12-16T09:48:56.577Z,1010.13
2018-12-16T09:49:56.289Z,1010.05
2018-12-16T09:50:56.260Z,1010.06
2018-12-16T09:51:56.250Z,1010.01
2018-12-16T09:52:56.231Z,1010.06
2018-12-16T09:53:56.231Z,1010.04
2018-12-16T09:54:56.222Z,1010.02
2018-12-16T09:55:56.194Z,1009.99
2018-12-16T09:56:56.192Z,1009.92
2018-12-16T09:57:56.174Z,1009.94
2018-12-16T09:58:56.176Z,1009.92
2018-12-16T09:59:56.154Z,1009.88
2018-12-16T10:00:56.150Z,1010.07
2018-12-16T10:01:56.138Z,1009.87
2018-12-16T10:02:56.132Z,1009.92
2018-12-16T10:03:56.178Z,1009.88
2018-12-16T10:04:56.111Z,1009.86
2018-12-16T10:05:56.091Z,1009.89
2018-12-16T10:06:56.085Z,1009.88
2018-12-16T10:07:56.062Z,1009.81
2018-12-16T10:08:56.057Z,1009.79
2018-12-16T10:09:56.073Z,1009.78
2018-12-16T10:10:56.040Z,1009.82
2018-12-16T10:11:56.024Z,1009.86
2018-12-16T10:12:56.016Z,1009.77
2018-12-16T10:13:56.017Z,1009.82
2018-12-16T10:14:56.043Z,1009.85
2018-12-16T10:15:55.987Z,1009.85
2018-12-16T10:16:55.979Z,1009.77
2018-12-16T10:17:55.955Z,1009.84
2018-12-16T10:18:55.943Z,1009.80
2018-12-16T10:19:55.948Z,1009.76
2018-12-16T10:20:55.950Z,1009.79
2018-12-16T10:21:55.921Z,1009.76
2018-12-16T10:22:55.928Z,1009.80
2018-12-16T10:23:55.894Z,1009.77
2018-12-16T10:24:55.882Z,1009.72
2018-12-16T10:25:55.872Z,1009.71
2018-12-16T10:26:55.881Z,1009.69
2018-12-16T10:27:55.852Z,1009.74
2018-12-16T10:28:55.855Z,1009.71
2018-12-16T10:29:55.906Z,1009.72
2018-12-16T10:30:55.814Z,1009.68
2018-12-16T10:31:55.845Z,1009.67
2018-12-16T10:32:55.804Z,1009.75
2018-12-16T10:33:55.786Z,1009.68
2018-12-16T10:34:55.777Z,1009.62
2018-12-16T10:35:55.772Z,1009.65
2018-12-16T10:36:55.757Z,1009.57
2018-12-16T10:37:55.760Z,1009.58
2018-12-16T10:38:55.746Z,1009.57
2018-12-16T10:39:55.724Z,1009.59
2018-12-16T10:40:55.708Z,1009.61
2018-12-16T10:41:55.716Z,1009.54
2018-12-16T10:42:55.699Z,1009.54
2018-12-16T10:43:55.692Z,1009.59
2018-12-16T10:44:55.703Z,1009.53
2018-12-16T10:45:55.673Z,1009.51
2018-12-16T10:46:55.652Z,1009.52
2018-12-16T10:47:55.643Z,1009.50
2018-12-16T10:48:55.633Z,1009.46
2018-12-16T10:49:55.610Z,1009.48
2018-12-16T10:50:55.642Z,1009.46
2018-12-16T10:51:55.595Z,1009.48
2018-12-16T10:52:55.579Z,1009.42
2018-12-16T10:53:55.671Z,1009.35
2018-12-16T10:54:58.545Z,1009.37
2018-12-16T10:55:55.557Z,1009.37
2018-12-16T10:56:55.584Z,1009.31
2018-12-16T10:57:55.536Z,1009.28
2018-12-16T10:58:55.516Z,1009.34
2018-12-16T10:59:55.518Z,1009.29
2018-12-16T11:00:55.512Z,1009.22
2018-12-16T11:01:55.514Z,1009.41
2018-12-16T11:02:55.493Z,1009.17
2018-12-16T11:03:55.467Z,1009.17
2018-12-16T11:04:55.457Z,1009.16
2018-12-16T11:05:55.465Z,1009.19
2018-12-16T11:06:55.473Z,1009.13
2018-12-16T11:07:55.455Z,1009.14
2018-12-16T11:08:55.422Z,1009.13
2018-12-16T11:09:55.408Z,1009.09
2018-12-16T11:10:55.390Z,1009.13
2018-12-16T11:11:55.618Z,1009.14
2018-12-16T11:12:55.370Z,1009.08
2018-12-16T11:13:55.367Z,1009.12
2018-12-16T11:14:55.358Z,1009.08
2018-12-16T11:15:55.325Z,1009.06
2018-12-16T11:16:55.329Z,1009.05
2018-12-16T11:17:55.342Z,1009.06
2018-12-16T11:18:55.306Z,1009.10
2018-12-16T11:19:55.315Z,1009.12
2018-12-16T11:20:55.295Z,1009.01
2018-12-16T11:21:55.294Z,1009.08
2018-12-16T11:22:55.285Z,1009.05
2018-12-16T11:23:55.264Z,1009.04
2018-12-16T11:24:55.235Z,1009.09
2018-12-16T11:25:55.235Z,1008.95
2018-12-16T11:26:55.225Z,1008.91
2018-12-16T11:27:55.246Z,1009.00
2018-12-16T11:28:55.209Z,1008.92
2018-12-16T11:29:55.176Z,1008.98
2018-12-16T11:30:55.179Z,1009.00
2018-12-16T11:31:55.172Z,1008.97
2018-12-16T11:32:55.182Z,1008.97
2018-12-16T11:33:55.168Z,1008.90
2018-12-16T11:34:55.142Z,1008.81
2018-12-16T11:35:55.115Z,1008.82
2018-12-16T11:36:55.107Z,1008.90
2018-12-16T11:37:55.104Z,1008.93
2018-12-16T11:38:55.107Z,1008.89
2018-12-16T11:39:55.093Z,1008.82
2018-12-16T11:40:55.067Z,1008.88
2018-12-16T11:41:55.066Z,1008.81
2018-12-16T11:42:55.045Z,1008.82
2018-12-16T11:43:55.051Z,1008.79
2018-12-16T11:44:55.047Z,1008.79
2018-12-16T11:45:55.029Z,1008.78
2018-12-16T11:46:55.036Z,1008.82
2018-12-16T11:47:54.991Z,1008.76
2018-12-16T11:48:55.058Z,1008.76
2018-12-16T11:49:54.981Z,1008.84
2018-12-16T11:50:54.979Z,1008.72
2018-12-16T11:51:54.961Z,1008.71
2018-12-16T11:52:54.956Z,1008.68
2018-12-16T11:53:54.931Z,1008.67
2018-12-16T11:54:54.962Z,1008.63
2018-12-16T11:55:54.920Z,1008.56
2018-12-16T11:56:54.910Z,1008.57
2018-12-16T11:57:54.902Z,1008.54
2018-12-16T11:58:54.906Z,1008.50
2018-12-16T11:59:54.908Z,1008.50
2018-12-16T12:00:54.880Z,1008.55
2018-12-16T12:01:54.847Z,1008.56
2018-12-16T12:02:54.857Z,1008.54
2018-12-16T12:03:54.834Z,1008.48
2018-12-16T12:04:54.872Z,1008.51